createdAt,value
2023-02-18T00:00:28.989Z,96754.91
2023-02-18T00:02:58.491Z,96704.13
2023-02-18T00:05:25.228Z,96727.31
2023-02-18T00:07:51.903Z,96713.88
2023-02-18T00:10:18.626Z,96711.13
2023-02-18T00:12:45.282Z,96735.44
2023-02-18T00:15:12.046Z,96758.41
2023-02-18T00:17:38.841Z,96766.22
2023-02-18T00:20:08.276Z,96740.50
2023-02-18T00:22:35.313Z,96728.06
2023-02-18T00:25:02.008Z,96748.91
2023-02-18T00:27:28.787Z,96767.22
2023-02-18T00:29:55.492Z,96742.19
2023-02-18T00:32:22.130Z,96735.97
2023-02-18T00:34:48.799Z,96743.75
2023-02-18T00:37:15.468Z,96758.84
2023-02-18T00:39:42.282Z,96726.44
2023-02-18T00:42:08.937Z,96735.97
2023-02-18T00:44:35.647Z,96743.75
2023-02-18T00:47:02.239Z,96743.34
2023-02-18T00:49:28.862Z,96760.75
2023-02-18T00:51:55.549Z,96743.44
2023-02-18T00:54:22.120Z,96720.47
2023-02-18T00:56:50.405Z,96740.03
2023-02-18T00:59:17.123Z,96752.97
2023-02-18T01:01:44.282Z,96760.41
2023-02-18T01:04:11.041Z,96754.34
2023-02-18T01:06:37.821Z,96719.16
2023-02-18T01:09:05.637Z,96757.00
2023-02-18T01:11:32.857Z,96690.06
2023-02-18T01:13:59.692Z,96679.94
2023-02-18T01:16:29.397Z,96731.41
2023-02-18T01:18:56.067Z,96761.00
2023-02-18T01:21:22.647Z,96743.25
2023-02-18T01:23:49.402Z,96725.34
2023-02-18T01:26:16.308Z,96750.09
2023-02-18T01:28:42.988Z,96744.50
2023-02-18T01:31:12.512Z,96746.63
2023-02-18T01:33:39.471Z,96743.78
2023-02-18T01:36:07.187Z,96730.91
2023-02-18T01:38:34.183Z,96719.53
2023-02-18T01:41:00.799Z,96725.41
2023-02-18T01:43:28.722Z,96730.56
2023-02-18T01:46:01.003Z,96711.66
2023-02-18T01:48:42.382Z,96734.22
2023-02-18T01:51:12.024Z,96746.03
2023-02-18T01:53:49.230Z,96742.41
2023-02-18T01:56:22.903Z,96724.78
2023-02-18T01:58:53.156Z,96727.28
2023-02-18T02:01:19.939Z,96703.03
2023-02-18T02:03:46.603Z,96717.19
2023-02-18T02:06:18.481Z,96721.94
2023-02-18T02:08:47.243Z,96742.09
2023-02-18T02:11:39.691Z,96733.13
2023-02-18T02:14:18.493Z,96739.03
2023-02-18T02:16:54.721Z,96728.81
2023-02-18T02:19:49.203Z,96726.78
2023-02-18T02:22:41.118Z,96731.19
2023-02-18T02:25:24.425Z,96724.53
2023-02-18T02:28:18.844Z,96731.91
2023-02-18T02:31:21.893Z,96725.88
2023-02-18T02:34:17.821Z,96728.38
2023-02-18T02:36:54.575Z,96722.22
2023-02-18T02:39:25.270Z,96734.69
2023-02-18T02:41:54.968Z,96737.19
2023-02-18T02:44:38.739Z,96699.72
2023-02-18T02:47:12.518Z,96736.75
2023-02-18T02:49:53.409Z,96719.56
2023-02-18T02:52:29.007Z,96725.31
2023-02-18T02:54:55.617Z,96687.44
2023-02-18T02:57:22.210Z,96706.19
2023-02-18T03:00:01.802Z,96720.84
2023-02-18T03:02:35.499Z,96717.84
2023-02-18T03:05:11.150Z,96719.78
2023-02-18T03:08:08.654Z,96710.66
2023-02-18T03:10:48.314Z,96707.13
2023-02-18T03:13:50.730Z,96695.56
2023-02-18T03:16:28.621Z,96694.72
2023-02-18T03:19:04.266Z,96692.31
2023-02-18T03:21:41.529Z,96662.16
2023-02-18T03:24:20.492Z,96690.94
2023-02-18T03:27:04.379Z,96699.50
2023-02-18T03:29:31.819Z,96695.72
2023-02-18T03:32:03.289Z,96683.47
2023-02-18T03:34:33.050Z,96707.88
2023-02-18T03:37:01.474Z,96677.81
2023-02-18T03:39:31.102Z,96706.44
2023-02-18T03:41:58.169Z,96666.19
2023-02-18T03:44:25.987Z,96690.97
2023-02-18T03:46:53.191Z,96697.78
2023-02-18T03:49:20.486Z,96688.75
2023-02-18T03:51:48.043Z,96646.38
2023-02-18T03:54:14.767Z,96676.03
2023-02-18T03:56:42.845Z,96702.41
2023-02-18T03:59:11.313Z,96704.13
2023-02-18T04:01:38.241Z,96684.25
2023-02-18T04:04:05.376Z,96677.88
2023-02-18T04:06:32.181Z,96701.28
2023-02-18T04:08:58.737Z,96675.41
2023-02-18T04:11:25.323Z,96670.06
2023-02-18T04:13:51.968Z,96699.72
2023-02-18T04:16:18.672Z,96702.88
2023-02-18T04:18:45.309Z,96679.47
2023-02-18T04:21:11.884Z,96712.63
2023-02-18T04:23:38.497Z,96713.50
2023-02-18T04:26:05.105Z,96714.19
2023-02-18T04:28:31.686Z,96686.38
2023-02-18T04:30:58.281Z,96674.41
2023-02-18T04:33:24.921Z,96717.19
2023-02-18T04:35:51.741Z,96696.91
2023-02-18T04:38:18.415Z,96719.44
2023-02-18T04:40:45.041Z,96673.16
2023-02-18T04:43:11.738Z,96693.00
2023-02-18T04:45:38.362Z,96717.81
2023-02-18T04:48:05.387Z,96721.22
2023-02-18T04:50:32.053Z,96683.88
2023-02-18T04:52:58.619Z,96689.31
2023-02-18T04:55:25.335Z,96630.78
2023-02-18T04:57:51.959Z,96706.84
2023-02-18T05:00:19.875Z,96727.66
2023-02-18T05:02:46.476Z,96706.25
2023-02-18T05:05:13.933Z,96709.06
2023-02-18T05:07:42.379Z,96718.03
2023-02-18T05:10:11.316Z,96696.25
2023-02-18T05:12:38.171Z,96691.34
2023-02-18T05:15:05.137Z,96721.13
2023-02-18T05:17:31.937Z,96687.28
2023-02-18T05:19:58.537Z,96716.00
2023-02-18T05:22:25.232Z,96695.56
2023-02-18T05:24:51.850Z,96697.91
2023-02-18T05:27:18.456Z,96696.63
2023-02-18T05:29:45.105Z,96685.84
2023-02-18T05:32:11.707Z,96718.31
2023-02-18T05:34:38.394Z,96684.47
2023-02-18T05:37:05.239Z,96716.94
2023-02-18T05:39:31.856Z,96674.03
2023-02-18T05:41:58.480Z,96667.44
2023-02-18T05:44:31.140Z,96681.72
2023-02-18T05:47:04.103Z,96706.34
2023-02-18T05:49:32.313Z,96708.09
2023-02-18T05:51:59.425Z,96681.44
2023-02-18T05:54:26.261Z,96711.22
2023-02-18T05:56:53.573Z,96712.88
2023-02-18T05:59:20.920Z,96715.25
2023-02-18T06:01:48.232Z,96664.28
2023-02-18T06:04:15.537Z,96682.09
2023-02-18T06:06:42.686Z,96702.13
2023-02-18T06:09:09.857Z,96701.13
2023-02-18T06:11:36.453Z,96712.41
2023-02-18T06:14:03.248Z,96695.00
2023-02-18T06:16:30.546Z,96701.03
2023-02-18T06:18:57.744Z,96721.66
2023-02-18T06:21:24.734Z,96694.72
2023-02-18T06:23:51.438Z,96709.28
2023-02-18T06:26:18.337Z,96700.94
2023-02-18T06:28:44.951Z,96655.91
2023-02-18T06:31:11.667Z,96682.22
2023-02-18T06:33:38.283Z,96696.13
2023-02-18T06:36:11.666Z,96647.13
2023-02-18T06:38:43.506Z,96690.69
2023-02-18T06:41:11.483Z,96687.56
2023-02-18T06:43:38.633Z,96680.56
2023-02-18T06:46:08.958Z,96644.38
2023-02-18T06:48:35.802Z,96628.22
2023-02-18T06:51:02.443Z,96657.91
2023-02-18T06:53:29.137Z,96646.91
2023-02-18T06:55:56.254Z,96630.72
2023-02-18T06:58:23.399Z,96618.00
2023-02-18T07:00:51.056Z,96638.28
2023-02-18T07:03:17.736Z,96609.41
2023-02-18T07:05:44.459Z,96595.59
2023-02-18T07:08:11.424Z,96607.38
2023-02-18T07:10:38.302Z,96630.28
2023-02-18T07:13:05.401Z,96605.63
2023-02-18T07:15:32.015Z,96579.09
2023-02-18T07:17:58.860Z,96610.97
2023-02-18T07:20:26.450Z,96605.41
2023-02-18T07:22:53.300Z,96596.25
2023-02-18T07:25:23.053Z,96600.91
2023-02-18T07:27:50.641Z,96604.09
2023-02-18T07:30:18.523Z,96606.91
2023-02-18T07:32:45.214Z,96599.78
2023-02-18T07:35:15.305Z,96604.72
2023-02-18T07:37:49.217Z,96602.09
2023-02-18T07:40:18.879Z,96602.09
2023-02-18T07:42:45.619Z,96596.66
2023-02-18T07:45:12.865Z,96609.13
2023-02-18T07:47:39.659Z,96569.81
2023-02-18T07:50:07.198Z,96605.88
2023-02-18T07:52:33.765Z,96584.53
2023-02-18T07:55:00.473Z,96622.44
2023-02-18T07:57:27.081Z,96613.00
2023-02-18T07:59:53.716Z,96618.25
2023-02-18T08:02:23.214Z,96613.00
2023-02-18T08:04:50.114Z,96589.69
2023-02-18T08:07:19.304Z,96584.44
2023-02-18T08:09:46.041Z,96610.84
2023-02-18T08:12:12.634Z,96591.66
2023-02-18T08:14:39.550Z,96605.22
2023-02-18T08:17:06.187Z,96596.66
2023-02-18T08:19:32.788Z,96630.41
2023-02-18T08:22:02.053Z,96626.81
2023-02-18T08:24:28.730Z,96609.06
2023-02-18T08:27:00.860Z,96641.44
2023-02-18T08:29:28.447Z,96616.16
2023-02-18T08:31:57.232Z,96626.72
2023-02-18T08:34:24.047Z,96614.94
2023-02-18T08:36:50.675Z,96628.78
2023-02-18T08:39:17.314Z,96646.69
2023-02-18T08:41:43.972Z,96606.75
2023-02-18T08:44:10.637Z,96613.78
2023-02-18T08:46:37.420Z,96613.97
2023-02-18T08:49:05.002Z,96627.00
2023-02-18T08:51:31.974Z,96659.22
2023-02-18T08:53:58.689Z,96624.63
2023-02-18T08:56:25.635Z,96608.69
2023-02-18T08:58:52.316Z,96608.53
2023-02-18T09:01:18.960Z,96595.28
2023-02-18T09:03:45.597Z,96638.50
2023-02-18T09:06:12.187Z,96600.22
2023-02-18T09:08:38.866Z,96615.78
2023-02-18T09:11:05.798Z,96632.72
2023-02-18T09:13:33.879Z,96624.50
2023-02-18T09:16:10.786Z,96645.78
2023-02-18T09:18:37.652Z,96607.59
2023-02-18T09:21:07.093Z,96599.25
2023-02-18T09:23:34.261Z,96591.59
2023-02-18T09:26:05.650Z,96637.75
2023-02-18T09:28:32.500Z,96598.16
2023-02-18T09:31:04.908Z,96625.97
2023-02-18T09:33:31.686Z,96638.09
2023-02-18T09:35:58.300Z,96608.63
2023-02-18T09:38:24.938Z,96651.16
2023-02-18T09:40:54.457Z,96665.59
2023-02-18T09:43:31.667Z,96660.94
2023-02-18T09:46:00.357Z,96635.31
2023-02-18T09:48:31.538Z,96634.06
2023-02-18T09:50:58.886Z,96629.84
2023-02-18T09:53:25.890Z,96602.38
2023-02-18T09:55:56.230Z,96634.84
2023-02-18T09:58:34.454Z,96637.50
2023-02-18T10:01:07.199Z,96633.34
2023-02-18T10:03:34.195Z,96640.28
2023-02-18T10:06:18.204Z,96609.97
2023-02-18T10:08:47.839Z,96611.75
2023-02-18T10:11:17.659Z,96647.47
2023-02-18T10:13:45.414Z,96606.03
2023-02-18T10:16:17.925Z,96602.75
2023-02-18T10:18:49.270Z,96605.41
2023-02-18T10:21:20.880Z,96600.75
2023-02-18T10:24:15.359Z,96591.16
2023-02-18T10:26:42.778Z,96610.41
2023-02-18T10:29:21.390Z,96571.13
2023-02-18T10:31:57.245Z,96604.47
2023-02-18T10:34:28.560Z,96604.63
2023-02-18T10:37:04.946Z,96590.69
2023-02-18T10:39:43.915Z,96587.88
2023-02-18T10:42:16.068Z,96532.03
2023-02-18T10:44:58.864Z,96577.94
2023-02-18T10:47:40.188Z,96578.44
2023-02-18T10:50:10.044Z,96578.72
2023-02-18T10:52:45.820Z,96593.16
2023-02-18T10:55:18.387Z,96591.00
2023-02-18T10:57:51.192Z,96585.22
2023-02-18T11:00:28.081Z,96571.44
2023-02-18T11:03:14.805Z,96576.84
2023-02-18T11:05:41.990Z,96552.66
2023-02-18T11:08:14.245Z,96568.63
2023-02-18T11:10:45.028Z,96562.56
2023-02-18T11:13:15.036Z,96552.47
2023-02-18T11:16:03.954Z,96561.63
2023-02-18T11:18:37.938Z,96529.31
2023-02-18T11:21:21.359Z,96504.50
2023-02-18T11:23:51.319Z,96561.44
2023-02-18T11:26:31.128Z,96536.13
2023-02-18T11:29:21.550Z,96549.91
2023-02-18T11:31:51.205Z,96483.84
2023-02-18T11:34:25.808Z,96552.53
2023-02-18T11:36:53.352Z,96496.09
2023-02-18T11:39:26.549Z,96494.38
2023-02-18T11:41:57.806Z,96510.47
2023-02-18T11:44:33.045Z,96472.34
2023-02-18T11:47:02.110Z,96542.59
2023-02-18T11:49:30.002Z,96523.38
2023-02-18T11:52:14.317Z,96471.88
2023-02-18T11:54:40.950Z,96515.88
2023-02-18T11:57:13.745Z,96511.97
2023-02-18T11:59:42.457Z,96482.06
2023-02-18T12:02:12.328Z,96520.19
2023-02-18T12:04:42.088Z,96507.09
2023-02-18T12:07:23.746Z,96500.59
2023-02-18T12:09:54.906Z,96505.38
2023-02-18T12:12:32.212Z,96453.44
2023-02-18T12:15:00.186Z,96515.06
2023-02-18T12:18:09.336Z,96493.47
2023-02-18T12:20:51.376Z,96470.66
2023-02-18T12:23:47.090Z,96457.56
2023-02-18T12:26:34.066Z,96496.63
2023-02-18T12:29:28.801Z,96480.03
2023-02-18T12:32:01.586Z,96477.09
2023-02-18T12:34:46.196Z,96476.28
2023-02-18T12:37:12.825Z,96484.22
2023-02-18T12:40:00.846Z,96480.34
2023-02-18T12:43:04.999Z,96465.91
2023-02-18T12:46:00.398Z,96425.28
2023-02-18T12:49:03.907Z,96449.19
2023-02-18T12:51:32.881Z,96461.09
2023-02-18T12:54:41.477Z,96472.56
2023-02-18T12:57:29.430Z,96463.28
2023-02-18T13:00:38.121Z,96470.44
2023-02-18T13:03:29.526Z,96457.53
2023-02-18T13:06:22.834Z,96464.06
2023-02-18T13:09:20.489Z,96461.50
2023-02-18T13:12:21.138Z,96437.41
2023-02-18T13:15:03.336Z,96436.72
2023-02-18T13:17:38.242Z,96409.69
2023-02-18T13:20:17.850Z,96430.91
2023-02-18T13:22:46.136Z,96427.53
2023-02-18T13:25:14.095Z,96402.91
2023-02-18T13:27:46.799Z,96433.56
2023-02-18T13:30:16.453Z,96436.19
2023-02-18T13:33:05.304Z,96408.03
2023-02-18T13:36:05.316Z,96443.81
2023-02-18T13:38:58.227Z,96409.69
2023-02-18T13:41:27.254Z,96405.06
2023-02-18T13:43:54.288Z,96394.78
2023-02-18T13:46:24.800Z,96410.28
2023-02-18T13:48:55.238Z,96413.94
2023-02-18T13:51:30.645Z,96426.56
2023-02-18T13:54:03.034Z,96438.84
2023-02-18T13:56:33.081Z,96392.38
2023-02-18T13:59:11.589Z,96438.56
2023-02-18T14:01:40.376Z,96417.47
2023-02-18T14:04:42.225Z,96435.16
2023-02-18T14:07:27.744Z,96431.50
2023-02-18T14:09:59.654Z,96444.38
2023-02-18T14:12:38.687Z,96445.47
2023-02-18T14:15:25.607Z,96435.25
2023-02-18T14:18:14.208Z,96440.41
2023-02-18T14:20:40.839Z,96439.19
2023-02-18T14:23:51.740Z,96435.97
2023-02-18T14:26:30.360Z,96403.25
2023-02-18T14:29:02.978Z,96438.75
2023-02-18T14:31:34.271Z,96408.09
2023-02-18T14:34:14.159Z,96436.19
2023-02-18T14:37:12.836Z,96367.38
2023-02-18T14:40:06.465Z,96405.97
2023-02-18T14:42:59.394Z,96402.56
2023-02-18T14:45:50.307Z,96393.53
2023-02-18T14:48:53.968Z,96425.63
2023-02-18T14:51:25.312Z,96423.16
2023-02-18T14:53:52.745Z,96385.47
2023-02-18T14:56:21.465Z,96418.84
2023-02-18T14:58:57.506Z,96398.34
2023-02-18T15:01:33.191Z,96410.75
2023-02-18T15:04:01.662Z,96408.25
2023-02-18T15:06:28.292Z,96409.22
2023-02-18T15:08:55.045Z,96362.97
2023-02-18T15:11:24.987Z,96425.19
2023-02-18T15:13:51.951Z,96397.25
2023-02-18T15:16:37.122Z,96417.72
2023-02-18T15:19:07.980Z,96414.16
2023-02-18T15:21:40.848Z,96452.78
2023-02-18T15:24:18.614Z,96438.19
2023-02-18T15:26:50.321Z,96463.31
2023-02-18T15:29:21.514Z,96474.16
2023-02-18T15:31:49.212Z,96477.75
2023-02-18T15:34:38.444Z,96452.63
2023-02-18T15:37:12.237Z,96475.25
2023-02-18T15:39:42.254Z,96471.38
2023-02-18T15:42:24.537Z,96481.94
2023-02-18T15:44:56.176Z,96449.38
2023-02-18T15:47:23.459Z,96470.91
2023-02-18T15:49:59.525Z,96459.13
2023-02-18T15:52:38.162Z,96470.13
2023-02-18T15:55:11.844Z,96464.53
2023-02-18T15:57:40.144Z,96461.75
2023-02-18T16:00:18.861Z,96459.75
2023-02-18T16:03:13.584Z,96465.81
2023-02-18T16:05:46.607Z,96468.44
2023-02-18T16:08:15.257Z,96433.22
2023-02-18T16:10:54.527Z,96418.50
2023-02-18T16:13:22.037Z,96455.13
2023-02-18T16:15:51.222Z,96453.56
2023-02-18T16:18:23.995Z,96468.91
2023-02-18T16:21:04.231Z,96471.53
2023-02-18T16:23:35.649Z,96437.91
2023-02-18T16:26:23.636Z,96449.84
2023-02-18T16:28:52.508Z,96474.19
2023-02-18T16:31:21.962Z,96473.84
2023-02-18T16:33:49.501Z,96478.22
2023-02-18T16:36:17.351Z,96449.34
2023-02-18T16:38:45.454Z,96448.75
2023-02-18T16:41:13.896Z,96484.72
2023-02-18T16:43:41.394Z,96469.81
2023-02-18T16:46:16.884Z,96479.44
2023-02-18T16:48:46.847Z,96491.84
2023-02-18T16:51:20.974Z,96475.41
2023-02-18T16:53:47.604Z,96501.47
2023-02-18T16:56:16.910Z,96443.78
2023-02-18T16:58:43.666Z,96480.22
2023-02-18T17:01:21.088Z,96503.47
2023-02-18T17:03:48.981Z,96483.91
2023-02-18T17:06:18.836Z,96505.50
2023-02-18T17:08:45.504Z,96485.16
2023-02-18T17:11:25.941Z,96521.00
2023-02-18T17:13:54.380Z,96487.78
2023-02-18T17:16:21.994Z,96493.91
2023-02-18T17:18:50.124Z,96504.66
2023-02-18T17:21:22.635Z,96547.06
2023-02-18T17:23:50.042Z,96553.84
2023-02-18T17:26:28.340Z,96547.50
2023-02-18T17:28:57.192Z,96555.59
2023-02-18T17:31:31.008Z,96551.81
2023-02-18T17:34:01.888Z,96544.38
2023-02-18T17:36:28.480Z,96514.13
2023-02-18T17:38:55.144Z,96534.53
2023-02-18T17:41:21.746Z,96536.28
2023-02-18T17:43:48.469Z,96563.47
2023-02-18T17:46:18.018Z,96566.72
2023-02-18T17:48:45.734Z,96567.31
2023-02-18T17:51:27.836Z,96574.78
2023-02-18T17:53:54.677Z,96556.47
2023-02-18T17:56:21.730Z,96555.50
2023-02-18T17:58:48.933Z,96580.03
2023-02-18T18:01:15.920Z,96566.03
2023-02-18T18:03:42.801Z,96590.72
2023-02-18T18:06:20.517Z,96580.56
2023-02-18T18:08:48.235Z,96562.41
2023-02-18T18:11:25.155Z,96572.19
2023-02-18T18:13:53.007Z,96573.25
2023-02-18T18:16:20.986Z,96598.41
2023-02-18T18:18:47.663Z,96528.41
2023-02-18T18:21:22.159Z,96601.28
2023-02-18T18:23:50.074Z,96566.53
2023-02-18T18:26:17.124Z,96594.41
2023-02-18T18:28:43.753Z,96586.66
2023-02-18T18:31:18.748Z,96610.50
2023-02-18T18:33:51.463Z,96613.97
2023-02-18T18:36:24.155Z,96610.53
2023-02-18T18:38:51.169Z,96577.47
2023-02-18T18:41:21.273Z,96593.63
2023-02-18T18:43:49.509Z,96563.72
2023-02-18T18:46:16.469Z,96599.91
2023-02-18T18:48:43.245Z,96604.66
2023-02-18T18:51:20.898Z,96612.47
2023-02-18T18:53:47.561Z,96611.69
2023-02-18T18:56:14.266Z,96605.31
2023-02-18T18:58:41.133Z,96607.97
2023-02-18T19:01:18.318Z,96607.50
2023-02-18T19:03:48.531Z,96599.53
2023-02-18T19:06:16.696Z,96610.97
2023-02-18T19:08:45.250Z,96611.13
2023-02-18T19:11:12.807Z,96615.31
2023-02-18T19:13:40.217Z,96594.09
2023-02-18T19:16:37.563Z,96603.84
2023-02-18T19:19:04.189Z,96597.44
2023-02-18T19:21:31.752Z,96594.09
2023-02-18T19:23:59.894Z,96576.13
2023-02-18T19:26:26.536Z,96590.28
2023-02-18T19:28:53.203Z,96599.44
2023-02-18T19:31:24.341Z,96570.63
2023-02-18T19:33:51.648Z,96582.22
2023-02-18T19:36:18.912Z,96616.22
2023-02-18T19:38:46.150Z,96590.50
2023-02-18T19:41:16.864Z,96608.09
2023-02-18T19:43:44.728Z,96616.59
2023-02-18T19:46:17.713Z,96615.34
2023-02-18T19:48:49.458Z,96610.47
2023-02-18T19:51:16.231Z,96583.28
2023-02-18T19:53:46.028Z,96581.34
2023-02-18T19:56:12.852Z,96565.78
2023-02-18T19:58:40.125Z,96598.63
2023-02-18T20:01:17.156Z,96586.84
2023-02-18T20:03:44.334Z,96569.69
2023-02-18T20:06:16.179Z,96597.66
2023-02-18T20:08:43.071Z,96580.84
2023-02-18T20:11:09.908Z,96584.06
2023-02-18T20:13:36.901Z,96562.50
2023-02-18T20:16:07.280Z,96569.00
2023-02-18T20:18:34.120Z,96572.53
2023-02-18T20:21:00.879Z,96561.06
2023-02-18T20:23:27.705Z,96606.16
2023-02-18T20:25:54.505Z,96583.91
2023-02-18T20:28:21.231Z,96597.97
2023-02-18T20:30:47.998Z,96560.34
2023-02-18T20:33:14.653Z,96606.16
2023-02-18T20:35:41.350Z,96608.78
2023-02-18T20:38:08.029Z,96563.41
2023-02-18T20:40:34.674Z,96597.03
2023-02-18T20:43:01.314Z,96539.34
2023-02-18T20:45:27.969Z,96591.84
2023-02-18T20:47:54.647Z,96593.22
2023-02-18T20:50:21.798Z,96553.19
2023-02-18T20:52:48.555Z,96579.91
2023-02-18T20:55:15.272Z,96566.69
2023-02-18T20:57:42.106Z,96569.38
2023-02-18T21:00:09.448Z,96529.97
2023-02-18T21:02:36.214Z,96574.56
2023-02-18T21:05:03.041Z,96572.53
2023-02-18T21:07:29.696Z,96558.13
2023-02-18T21:09:56.330Z,96561.53
2023-02-18T21:12:22.947Z,96549.19
2023-02-18T21:14:49.639Z,96548.69
2023-02-18T21:17:16.377Z,96549.94
2023-02-18T21:19:43.566Z,96568.66
2023-02-18T21:22:10.295Z,96575.03
2023-02-18T21:24:36.999Z,96530.44
2023-02-18T21:27:03.872Z,96581.97
2023-02-18T21:29:30.729Z,96602.66
2023-02-18T21:31:57.392Z,96602.38
2023-02-18T21:34:25.997Z,96543.47
2023-02-18T21:36:52.644Z,96537.53
2023-02-18T21:39:19.494Z,96574.75
2023-02-18T21:41:49.598Z,96586.91
2023-02-18T21:44:16.160Z,96578.16
2023-02-18T21:46:42.899Z,96561.06
2023-02-18T21:49:10.611Z,96593.53
2023-02-18T21:52:08.430Z,96595.38
2023-02-18T21:54:41.206Z,96590.13
2023-02-18T21:57:11.436Z,96587.97
2023-02-18T21:59:41.110Z,96565.44
2023-02-18T22:02:16.210Z,96563.75
2023-02-18T22:04:42.911Z,96560.78
2023-02-18T22:07:09.707Z,96589.22
2023-02-18T22:09:36.694Z,96553.28
2023-02-18T22:12:03.756Z,96587.88
2023-02-18T22:14:30.630Z,96568.25
2023-02-18T22:16:57.909Z,96552.13
2023-02-18T22:19:24.758Z,96571.06
2023-02-18T22:21:51.459Z,96544.03
2023-02-18T22:24:19.072Z,96574.56
2023-02-18T22:26:46.613Z,96551.84
2023-02-18T22:29:15.053Z,96579.94
2023-02-18T22:31:42.150Z,96571.56
2023-02-18T22:34:09.346Z,96584.13
2023-02-18T22:36:35.963Z,96554.25
2023-02-18T22:39:04.676Z,96571.84
2023-02-18T22:41:32.574Z,96569.03
2023-02-18T22:44:01.727Z,96587.69
2023-02-18T22:46:30.371Z,96551.38
2023-02-18T22:48:57.432Z,96563.91
2023-02-18T22:51:29.645Z,96554.84
2023-02-18T22:53:57.989Z,96569.94
2023-02-18T22:56:26.666Z,96546.78
2023-02-18T22:58:54.818Z,96521.81
2023-02-18T23:01:23.037Z,96552.69
2023-02-18T23:03:50.812Z,96530.28
2023-02-18T23:06:18.257Z,96558.38
2023-02-18T23:08:45.741Z,96516.09
2023-02-18T23:11:15.337Z,96549.72
2023-02-18T23:13:42.711Z,96558.06
2023-02-18T23:16:12.892Z,96558.66
2023-02-18T23:18:40.105Z,96552.81
2023-02-18T23:21:17.265Z,96531.34
2023-02-18T23:23:52.731Z,96536.66
2023-02-18T23:26:21.893Z,96547.75
2023-02-18T23:28:50.686Z,96551.94
2023-02-18T23:31:17.459Z,96538.50
2023-02-18T23:33:44.980Z,96538.72
2023-02-18T23:36:17.335Z,96541.72
2023-02-18T23:38:48.891Z,96513.06
2023-02-18T23:41:16.735Z,96504.63
2023-02-18T23:43:44.109Z,96504.69
2023-02-18T23:46:11.432Z,96525.69
2023-02-18T23:48:38.651Z,96530.44
2023-02-18T23:51:07.359Z,96512.56
2023-02-18T23:53:36.114Z,96524.41
2023-02-18T23:56:07.233Z,96508.81
2023-02-18T23:58:36.994Z,96485.34
